Yasoge, Iran

6:28 PM IRDT on July 30, 2015 (GMT +0430)
Goes-West | | Change Station
CLOSE
Current Station
Personal Weather Station
Location: Goes, ZEELAND
Elevation: -9999 ft
Nearby Weather Stations

Elev -9999 ft 30.88 °N, 51.50 °E | Updated 27 minutes ago

Scattered Clouds
Scattered Clouds
58.6 °F
Feels Like 58.6 °F
N
0.0
Wind Variable Wind from NNW
Gusts 2.0 mph

Today
High -- | Low -- °F
--% Chance of Precip.
Yesterday
High -- | Low -- °F
Precip. -- in
6:19 AM 7:59 PM
Waxing Gibbous, 99% visible
Pressure 30.01 in
Visibility 6.2 miles
Clouds Scattered Clouds 4500 ft
Dew Point 54 °F
Humidity 85%
Rainfall 0.39 in
Snow Depth Not available.
UV 2 out of 12
Pollen Not available.
Air Quality Not available.
Flu Activity Not available.
METAR OISY 301300Z 00000KT 9999 SCT045 34/00 Q1016

More Conditions Fewer Conditions

Pressure 30.01 in
Visibility 6.2 miles
Clouds Scattered Clouds 4500 ft
Dew Point 54 °F
Humidity 85%
Rainfall 0.39 in
Snow Depth Not available.
UV 2 out of 12
Pollen Not available.
Air Quality Not available.
Flu Activity Not available.
METAR OISY 301300Z 00000KT 9999 SCT045 34/00 Q1016

More Conditions Fewer Conditions

10-Day Weather Forecast

×

Almanac

Astronomy

Jul. 30, 2015 Rise Set
Actual Time
Civil Twilight
Nautical Twilight
Astronomical Twilight
Moon
Length of Visible Light
Length of Day
Tomorrow will be .
, % of the Moon is Illuminated

Today's Extremes

Country Highs Country Lows

Community

WunderPhotos

Upload Photos

1,842,360 photos uploaded!

WunderBlogs® & News

Nearby

Air Quality

  Air Quality AQ Index Pollutant
Not available.

Snow Depth

Station Depth Elevation

Earthquake Activity

City Distance Mag. Time & Date
Minimum magnitude displayed is 2.5.

Coastal Water Temperatures

Place Temperature

Stations

Nearby Weather Stations

Station Location Temp. Windchill Dew Point Humidity Wind Precip. Elev Updated Type